createdAt,value
2018-11-25T00:02:19.112Z,7.90
2018-11-25T00:05:17.729Z,7.70
2018-11-25T00:08:16.242Z,9.87
2018-11-25T00:11:14.703Z,11.23
2018-11-25T00:14:13.047Z,8.87
2018-11-25T00:17:11.566Z,7.20
2018-11-25T00:20:09.333Z,9.07
2018-11-25T00:23:07.850Z,7.80
2018-11-25T00:26:06.448Z,7.73
2018-11-25T00:29:04.792Z,9.07
2018-11-25T00:32:03.848Z,7.83
2018-11-25T00:35:02.246Z,9.47
2018-11-25T00:38:00.571Z,9.07
2018-11-25T00:40:58.765Z,8.80
2018-11-25T00:43:57.123Z,8.93
2018-11-25T00:46:55.442Z,9.47
2018-11-25T00:49:53.663Z,9.40
2018-11-25T00:52:51.634Z,10.17
2018-11-25T00:55:49.978Z,9.50
2018-11-25T00:58:48.681Z,8.63
2018-11-25T01:01:47.544Z,9.57
2018-11-25T01:04:46.183Z,9.23
2018-11-25T01:07:44.487Z,7.27
2018-11-25T01:10:42.981Z,8.33
2018-11-25T01:13:40.896Z,7.90
2018-11-25T01:16:51.330Z,8.87
2018-11-25T01:19:49.603Z,9.70
2018-11-25T01:22:47.898Z,7.80
2018-11-25T01:25:46.286Z,8.50
2018-11-25T01:28:44.845Z,9.30
2018-11-25T01:31:42.993Z,8.57
2018-11-25T01:34:41.269Z,9.23
2018-11-25T01:37:39.611Z,12.17
2018-11-25T01:40:38.788Z,10.97
2018-11-25T01:43:37.022Z,10.37
2018-11-25T01:46:35.055Z,14.70
2018-11-25T01:49:33.584Z,11.40
2018-11-25T01:52:31.722Z,11.40
2018-11-25T01:55:32.157Z,11.73
2018-11-25T01:58:30.554Z,12.07
2018-11-25T02:01:28.738Z,17.33
2018-11-25T02:04:26.661Z,16.00
2018-11-25T02:07:26.142Z,13.30
2018-11-25T02:10:25.215Z,14.07
2018-11-25T02:13:23.329Z,11.50
2018-11-25T02:16:21.273Z,15.17
2018-11-25T02:19:19.116Z,14.03
2018-11-25T02:22:17.274Z,14.87
2018-11-25T02:25:15.344Z,15.97
2018-11-25T02:28:13.724Z,15.90
2018-11-25T02:31:11.965Z,15.10
2018-11-25T02:34:10.240Z,16.30
2018-11-25T02:37:08.637Z,16.70
2018-11-25T02:40:06.791Z,18.03
2018-11-25T02:43:04.843Z,15.10
2018-11-25T02:46:03.285Z,15.47
2018-11-25T02:49:01.536Z,17.13
2018-11-25T02:52:00.293Z,14.87
2018-11-25T02:54:58.592Z,15.40
2018-11-25T02:57:57.032Z,16.80
2018-11-25T03:00:55.631Z,18.90
2018-11-25T03:03:54.034Z,14.93
2018-11-25T03:06:52.246Z,15.97
2018-11-25T03:09:50.625Z,14.43
2018-11-25T03:12:48.994Z,13.30
2018-11-25T03:15:47.502Z,18.30
2018-11-25T03:18:45.751Z,17.13
2018-11-25T03:21:44.211Z,19.00
2018-11-25T03:24:42.592Z,15.50
2018-11-25T03:27:40.952Z,14.03
2018-11-25T03:30:43.392Z,15.03
2018-11-25T03:33:41.806Z,15.30
2018-11-25T03:36:40.976Z,14.90
2018-11-25T03:39:39.230Z,14.77
2018-11-25T03:42:37.251Z,14.90
2018-11-25T03:45:36.371Z,12.73
2018-11-25T03:48:34.522Z,15.23
2018-11-25T03:51:32.712Z,15.10
2018-11-25T03:54:30.988Z,16.70
2018-11-25T03:57:29.108Z,15.47
2018-11-25T04:00:32.695Z,16.13
2018-11-25T04:03:32.149Z,16.80
2018-11-25T04:06:30.530Z,16.83
2018-11-25T04:09:30.909Z,14.53
2018-11-25T04:12:29.853Z,14.83
2018-11-25T04:15:30.335Z,14.70
2018-11-25T04:18:28.845Z,15.63
2018-11-25T04:21:27.218Z,14.47
2018-11-25T04:24:25.363Z,14.63
2018-11-25T04:27:23.536Z,16.67
2018-11-25T04:30:26.732Z,14.90
2018-11-25T04:33:24.971Z,17.90
2018-11-25T04:36:23.204Z,21.23
2018-11-25T04:39:23.639Z,21.23
2018-11-25T04:42:22.123Z,19.23
2018-11-25T04:45:21.423Z,19.87
2018-11-25T04:48:19.966Z,19.53
2018-11-25T04:51:18.084Z,19.87
2018-11-25T04:54:16.004Z,18.43
2018-11-25T04:57:14.069Z,21.37
2018-11-25T05:00:12.707Z,20.00
2018-11-25T05:03:10.905Z,19.27
2018-11-25T05:06:09.353Z,20.10
2018-11-25T05:09:07.948Z,22.73
2018-11-25T05:12:06.424Z,22.93
2018-11-25T05:15:04.674Z,19.83
2018-11-25T05:18:02.830Z,20.30
2018-11-25T05:21:01.650Z,21.17
2018-11-25T05:23:59.560Z,22.33
2018-11-25T05:26:57.840Z,21.07
2018-11-25T05:29:56.511Z,22.53
2018-11-25T05:32:54.879Z,24.97
2018-11-25T05:35:53.363Z,20.23
2018-11-25T05:38:51.630Z,20.50
2018-11-25T05:41:49.745Z,19.40
2018-11-25T05:44:47.819Z,23.53
2018-11-25T05:47:46.179Z,24.53
2018-11-25T05:50:44.467Z,25.10
2018-11-25T05:53:42.560Z,23.03
2018-11-25T05:56:40.687Z,22.43
2018-11-25T05:59:38.883Z,24.77
2018-11-25T06:02:37.076Z,21.10
2018-11-25T06:05:35.490Z,23.00
2018-11-25T06:08:33.877Z,22.43
2018-11-25T06:11:32.236Z,21.80
2018-11-25T06:14:30.439Z,26.37
2018-11-25T06:17:28.558Z,25.73
2018-11-25T06:20:34.109Z,22.87
2018-11-25T06:23:32.301Z,23.40
2018-11-25T06:26:30.906Z,23.13
2018-11-25T06:29:28.865Z,25.93
2018-11-25T06:32:27.337Z,25.43
2018-11-25T06:35:26.848Z,29.27
2018-11-25T06:38:24.854Z,30.33
2018-11-25T06:41:23.207Z,36.60
2018-11-25T06:44:21.827Z,28.33
2018-11-25T06:47:20.727Z,24.57
2018-11-25T06:50:20.310Z,47.48
2018-11-25T06:53:18.971Z,30.17
2018-11-25T06:56:17.564Z,39.07
2018-11-25T06:59:16.000Z,31.00
2018-11-25T07:02:14.714Z,34.03
2018-11-25T07:05:13.188Z,28.10
2018-11-25T07:08:11.287Z,34.33
2018-11-25T07:11:09.515Z,37.70
2018-11-25T07:14:07.880Z,36.03
2018-11-25T07:17:06.215Z,43.30
2018-11-25T07:20:04.517Z,39.97
2018-11-25T07:23:02.600Z,43.67
2018-11-25T07:26:01.035Z,70.43
2018-11-25T07:28:59.104Z,62.23
2018-11-25T07:31:57.454Z,50.87
2018-11-25T07:34:55.746Z,52.27
2018-11-25T07:37:53.743Z,53.73
2018-11-25T07:40:51.967Z,48.13
2018-11-25T07:43:49.769Z,46.60
2018-11-25T07:46:48.071Z,57.43
2018-11-25T07:49:46.844Z,44.17
2018-11-25T07:52:45.305Z,53.23
2018-11-25T07:55:45.427Z,51.73
2018-11-25T07:58:43.633Z,44.27
2018-11-25T08:01:41.959Z,27.00
2018-11-25T08:04:40.202Z,25.93
2018-11-25T08:07:38.443Z,31.00
2018-11-25T08:10:37.703Z,23.60
2018-11-25T08:13:36.117Z,19.63
2018-11-25T08:16:34.294Z,16.93
2018-11-25T08:19:34.235Z,22.53
2018-11-25T08:22:32.199Z,15.50
2018-11-25T08:25:33.763Z,20.67
2018-11-25T08:28:32.756Z,14.57
2018-11-25T08:31:30.819Z,17.30
2018-11-25T08:34:29.454Z,17.57
2018-11-25T08:37:27.671Z,16.40
2018-11-25T08:40:27.571Z,15.40
2018-11-25T08:43:25.757Z,32.90
2018-11-25T08:46:23.895Z,35.17
2018-11-25T08:49:22.375Z,29.90
2018-11-25T08:52:20.809Z,27.43
2018-11-25T08:55:20.706Z,29.47
2018-11-25T08:58:24.430Z,23.40
2018-11-25T09:01:23.307Z,20.13
2018-11-25T09:04:21.652Z,18.30
2018-11-25T09:07:19.932Z,17.63
2018-11-25T09:10:18.110Z,16.20
2018-11-25T09:13:18.412Z,17.03
2018-11-25T09:16:16.958Z,14.30
2018-11-25T09:19:15.051Z,14.33
2018-11-25T09:22:13.209Z,13.97
2018-11-25T09:25:11.535Z,14.00
2018-11-25T09:28:09.673Z,13.47
2018-11-25T09:31:07.873Z,12.63
2018-11-25T09:34:05.862Z,13.13
2018-11-25T09:37:04.267Z,11.47
2018-11-25T09:40:02.506Z,15.90
2018-11-25T09:43:00.577Z,13.43
2018-11-25T09:45:58.968Z,15.83
2018-11-25T09:48:57.183Z,15.10
2018-11-25T09:51:55.103Z,16.57
2018-11-25T09:54:53.383Z,14.03
2018-11-25T09:57:51.596Z,15.07
2018-11-25T10:00:51.759Z,14.70
2018-11-25T10:03:50.080Z,13.33
2018-11-25T10:06:48.338Z,13.10
2018-11-25T10:09:47.077Z,13.37
2018-11-25T10:12:45.325Z,13.53
2018-11-25T10:15:44.580Z,15.83
2018-11-25T10:18:42.981Z,12.83
2018-11-25T10:21:40.976Z,14.73
2018-11-25T10:24:39.138Z,12.90
2018-11-25T10:27:37.733Z,12.10
2018-11-25T10:30:38.987Z,12.40
2018-11-25T10:33:37.127Z,12.10
2018-11-25T10:36:35.869Z,12.20
2018-11-25T10:39:34.572Z,12.93
2018-11-25T10:42:32.573Z,12.93
2018-11-25T10:45:37.940Z,11.40
2018-11-25T10:48:36.292Z,11.03
2018-11-25T10:51:34.381Z,11.27
2018-11-25T10:54:32.741Z,10.17
2018-11-25T10:57:31.121Z,10.30
2018-11-25T11:00:53.519Z,10.57
2018-11-25T11:03:57.720Z,9.53
2018-11-25T11:07:01.822Z,8.80
2018-11-25T11:09:59.612Z,8.97
2018-11-25T11:12:58.883Z,8.90
2018-11-25T11:15:56.197Z,9.23
2018-11-25T11:18:54.474Z,8.43
2018-11-25T11:21:52.663Z,8.97
2018-11-25T11:24:51.045Z,9.20
2018-11-25T11:27:49.874Z,7.77
2018-11-25T11:30:47.992Z,9.23
2018-11-25T11:33:46.215Z,8.40
2018-11-25T11:36:44.148Z,8.50
2018-11-25T11:39:42.287Z,8.07
2018-11-25T11:42:40.455Z,7.73
2018-11-25T11:45:38.763Z,7.90
2018-11-25T11:48:37.252Z,8.03
2018-11-25T11:51:35.467Z,7.70
2018-11-25T11:54:34.027Z,7.70
2018-11-25T11:57:32.160Z,7.90
2018-11-25T12:00:42.860Z,7.50
2018-11-25T12:03:41.632Z,8.33
2018-11-25T12:06:39.632Z,8.13
2018-11-25T12:09:38.002Z,8.90
2018-11-25T12:12:36.522Z,9.50
2018-11-25T12:15:37.156Z,9.13
2018-11-25T12:18:35.547Z,10.23
2018-11-25T12:21:34.196Z,9.40
2018-11-25T12:24:32.244Z,9.07
2018-11-25T12:27:30.310Z,8.60
2018-11-25T12:30:29.706Z,8.77
2018-11-25T12:33:29.299Z,8.43
2018-11-25T12:36:27.893Z,8.93
2018-11-25T12:39:28.516Z,8.57
2018-11-25T12:42:24.799Z,7.97
2018-11-25T12:45:24.044Z,7.60
2018-11-25T12:48:30.446Z,7.50
2018-11-25T12:51:28.619Z,7.77
2018-11-25T12:54:26.757Z,8.30
2018-11-25T12:57:25.532Z,7.40
2018-11-25T13:00:33.636Z,8.33
2018-11-25T13:03:32.839Z,9.17
2018-11-25T13:06:31.074Z,8.00
2018-11-25T13:09:30.598Z,9.90
2018-11-25T13:12:29.164Z,12.67
2018-11-25T13:15:27.545Z,11.13
2018-11-25T13:18:25.890Z,10.60
2018-11-25T13:21:24.157Z,11.30
2018-11-25T13:24:22.903Z,11.30
2018-11-25T13:27:20.747Z,10.73
2018-11-25T13:30:20.261Z,11.63
2018-11-25T13:33:21.315Z,12.60
2018-11-25T13:36:20.507Z,14.23
2018-11-25T13:39:18.984Z,13.27
2018-11-25T13:42:17.642Z,13.30
2018-11-25T13:45:15.983Z,14.40
2018-11-25T13:48:14.263Z,14.83
2018-11-25T13:51:19.284Z,16.13
2018-11-25T13:54:21.165Z,16.83
2018-11-25T13:57:19.636Z,17.80
2018-11-25T14:00:18.702Z,18.07
2018-11-25T14:03:17.069Z,17.57
2018-11-25T14:06:15.433Z,18.33
2018-11-25T14:09:15.120Z,17.43
2018-11-25T14:12:13.476Z,17.83
2018-11-25T14:15:11.788Z,18.00
2018-11-25T14:18:10.159Z,18.40
2018-11-25T14:21:08.341Z,19.33
2018-11-25T14:24:06.649Z,19.40
2018-11-25T14:27:08.625Z,18.97
2018-11-25T14:30:13.222Z,18.00
2018-11-25T14:33:06.172Z,19.10
2018-11-25T14:36:04.638Z,19.27
2018-11-25T14:39:03.002Z,20.63
2018-11-25T14:42:01.011Z,20.47
2018-11-25T14:45:00.602Z,20.10
2018-11-25T14:48:01.233Z,18.87
2018-11-25T14:50:59.651Z,16.83
2018-11-25T14:53:57.834Z,19.23
2018-11-25T14:56:56.472Z,21.57
2018-11-25T14:59:54.724Z,21.93
2018-11-25T15:02:53.214Z,22.30
2018-11-25T15:05:54.362Z,23.53
2018-11-25T15:08:52.444Z,26.80
2018-11-25T15:11:51.209Z,33.33
2018-11-25T15:14:50.052Z,22.77
2018-11-25T15:17:48.329Z,22.13
2018-11-25T15:20:46.688Z,23.50
2018-11-25T15:23:44.978Z,18.83
2018-11-25T15:26:43.229Z,20.43
2018-11-25T15:29:41.483Z,19.07
2018-11-25T15:32:39.826Z,20.03
2018-11-25T15:35:37.902Z,19.60
2018-11-25T15:38:36.384Z,19.47
2018-11-25T15:41:34.754Z,19.53
2018-11-25T15:44:33.033Z,17.47
2018-11-25T15:47:31.908Z,16.40
2018-11-25T15:50:35.094Z,18.47
2018-11-25T15:53:33.439Z,22.23
2018-11-25T15:56:33.187Z,25.23
2018-11-25T15:59:31.720Z,19.50
2018-11-25T16:02:30.272Z,17.10
2018-11-25T16:05:30.809Z,17.67
2018-11-25T16:08:28.851Z,18.63
2018-11-25T16:11:28.372Z,20.50
2018-11-25T16:14:26.945Z,20.07
2018-11-25T16:17:25.306Z,25.30
2018-11-25T16:20:25.523Z,29.07
2018-11-25T16:23:27.971Z,26.10
2018-11-25T16:26:35.789Z,28.07
2018-11-25T16:29:38.027Z,29.50
2018-11-25T16:32:36.274Z,25.33
2018-11-25T16:35:34.637Z,27.30
2018-11-25T16:38:32.519Z,28.77
2018-11-25T16:41:30.695Z,32.00
2018-11-25T16:44:28.949Z,30.83
2018-11-25T16:47:27.311Z,31.57
2018-11-25T16:50:27.078Z,32.23
2018-11-25T16:53:25.347Z,33.07
2018-11-25T16:56:23.506Z,32.70
2018-11-25T16:59:21.563Z,29.73
2018-11-25T17:02:20.865Z,36.55
2018-11-25T17:05:21.064Z,31.03
2018-11-25T17:08:24.666Z,30.17
2018-11-25T17:11:23.252Z,35.03
2018-11-25T17:14:21.520Z,32.77
2018-11-25T17:17:20.475Z,24.80
2018-11-25T17:20:18.867Z,24.93
2018-11-25T17:23:17.441Z,26.03
2018-11-25T17:26:15.808Z,26.20
2018-11-25T17:29:14.054Z,26.93
2018-11-25T17:32:11.891Z,28.47
2018-11-25T17:35:10.294Z,30.83
2018-11-25T17:38:08.347Z,31.10
2018-11-25T17:41:07.004Z,31.30
2018-11-25T17:44:05.494Z,30.97
2018-11-25T17:47:04.259Z,51.80
2018-11-25T17:50:02.628Z,45.20
2018-11-25T17:53:01.064Z,41.00
2018-11-25T17:55:59.249Z,37.30
2018-11-25T17:58:58.675Z,47.50
2018-11-25T18:01:57.136Z,39.20
2018-11-25T18:04:55.563Z,39.17
2018-11-25T18:07:54.746Z,36.90
2018-11-25T18:10:52.958Z,29.67
2018-11-25T18:13:53.109Z,26.63
2018-11-25T18:16:51.567Z,33.70
2018-11-25T18:19:49.672Z,39.17
2018-11-25T18:22:49.939Z,39.40
2018-11-25T18:25:48.338Z,35.17
2018-11-25T18:28:46.881Z,37.13
2018-11-25T18:31:45.315Z,33.87
2018-11-25T18:34:44.817Z,32.60
2018-11-25T18:37:43.458Z,32.70
2018-11-25T18:40:41.666Z,35.03
2018-11-25T18:43:40.325Z,31.53
2018-11-25T18:46:46.505Z,35.53
2018-11-25T18:49:39.208Z,36.53
2018-11-25T18:52:37.646Z,36.33
2018-11-25T18:55:35.715Z,36.73
2018-11-25T18:58:34.457Z,34.03
2018-11-25T19:01:43.968Z,36.37
2018-11-25T19:04:42.060Z,35.90
2018-11-25T19:07:40.639Z,33.10
2018-11-25T19:10:39.916Z,32.97
2018-11-25T19:13:38.199Z,32.80
2018-11-25T19:16:37.650Z,32.03
2018-11-25T19:19:34.735Z,29.30
2018-11-25T19:22:33.130Z,31.07
2018-11-25T19:25:33.415Z,27.27
2018-11-25T19:28:32.942Z,28.30
2018-11-25T19:31:31.043Z,28.37
2018-11-25T19:34:29.795Z,30.80
2018-11-25T19:37:27.912Z,28.83
2018-11-25T19:40:34.627Z,29.07
2018-11-25T19:43:32.711Z,25.20
2018-11-25T19:46:30.868Z,27.67
2018-11-25T19:49:29.201Z,24.67
2018-11-25T19:52:27.197Z,24.57
2018-11-25T19:55:25.512Z,25.07
2018-11-25T19:58:23.829Z,25.73
2018-11-25T20:01:22.255Z,25.57
2018-11-25T20:04:20.441Z,26.97
2018-11-25T20:07:18.677Z,29.10
2018-11-25T20:10:17.097Z,26.37
2018-11-25T20:13:18.267Z,30.33
2018-11-25T20:16:22.534Z,25.33
2018-11-25T20:19:20.816Z,28.47
2018-11-25T20:22:25.113Z,23.80
2018-11-25T20:25:25.198Z,21.50
2018-11-25T20:28:23.637Z,22.73
2018-11-25T20:31:21.762Z,23.60
2018-11-25T20:34:20.007Z,20.83
2018-11-25T20:37:18.278Z,22.00
2018-11-25T20:40:16.546Z,21.73
2018-11-25T20:43:14.667Z,22.00
2018-11-25T20:46:18.777Z,22.80
2018-11-25T20:50:19.894Z,22.67
2018-11-25T20:53:23.774Z,22.70
2018-11-25T20:56:22.436Z,23.27
2018-11-25T20:59:20.685Z,22.43
2018-11-25T21:02:20.356Z,25.43
2018-11-25T21:05:17.732Z,26.27
2018-11-25T21:08:15.913Z,27.77
2018-11-25T21:11:14.069Z,25.97
2018-11-25T21:14:12.453Z,25.80
2018-11-25T21:17:10.419Z,26.27
2018-11-25T21:20:08.772Z,27.83
2018-11-25T21:23:07.315Z,26.77
2018-11-25T21:26:05.969Z,25.93
2018-11-25T21:29:04.087Z,27.17
2018-11-25T21:32:02.555Z,25.03
2018-11-25T21:35:01.019Z,24.37
2018-11-25T21:37:59.375Z,24.97
2018-11-25T21:40:57.925Z,25.43
2018-11-25T21:43:56.329Z,23.43
2018-11-25T21:46:56.246Z,24.23
2018-11-25T21:49:55.108Z,24.27
2018-11-25T21:52:53.821Z,26.33
2018-11-25T21:58:50.714Z,22.50
2018-11-25T22:01:49.222Z,24.60
2018-11-25T22:04:47.859Z,23.37
2018-11-25T22:07:46.156Z,24.10
2018-11-25T22:10:44.911Z,24.70
2018-11-25T22:13:43.598Z,25.10
2018-11-25T22:16:41.950Z,26.17
2018-11-25T22:19:40.227Z,25.67
2018-11-25T22:22:38.679Z,26.17
2018-11-25T22:25:38.185Z,29.37
2018-11-25T22:28:36.449Z,24.87
2018-11-25T22:31:34.886Z,25.70
2018-11-25T22:34:33.130Z,25.90
2018-11-25T22:37:31.425Z,23.40
2018-11-25T22:40:30.695Z,24.83
2018-11-25T22:43:29.215Z,23.43
2018-11-25T22:46:29.140Z,23.77
2018-11-25T22:49:27.534Z,23.87
2018-11-25T22:52:25.415Z,22.80
2018-11-25T22:55:33.102Z,23.47
2018-11-25T22:58:31.482Z,24.70
2018-11-25T23:01:29.543Z,23.40
2018-11-25T23:04:49.799Z,24.80
2018-11-25T23:07:47.855Z,26.50
2018-11-25T23:10:46.336Z,26.23
2018-11-25T23:13:44.540Z,26.90
2018-11-25T23:16:43.092Z,28.17
2018-11-25T23:19:43.034Z,27.33
2018-11-25T23:22:41.457Z,28.47
2018-11-25T23:25:39.575Z,28.00
2018-11-25T23:28:37.974Z,27.57
2018-11-25T23:31:36.368Z,27.33
2018-11-25T23:34:34.518Z,27.37
2018-11-25T23:37:35.778Z,28.30
2018-11-25T23:40:37.732Z,28.10
2018-11-25T23:43:36.594Z,27.73
2018-11-25T23:46:35.559Z,28.00
2018-11-25T23:49:33.711Z,27.63
2018-11-25T23:52:31.752Z,29.57
2018-11-25T23:55:30.940Z,30.17
2018-11-25T23:58:29.202Z,30.83
